createdAt,value
2022-11-22T00:00:25.952Z,4.22
2022-11-22T00:00:57.484Z,4.17
2022-11-22T00:01:28.999Z,4.14
2022-11-22T00:02:00.538Z,4.16
2022-11-22T00:02:32.035Z,4.14
2022-11-22T00:03:03.548Z,4.19
2022-11-22T00:03:34.990Z,4.22
2022-11-22T00:04:06.452Z,4.16
2022-11-22T00:04:38.129Z,4.15
2022-11-22T00:05:09.875Z,4.18
2022-11-22T00:05:41.305Z,4.21
2022-11-22T00:06:12.765Z,4.25
2022-11-22T00:06:44.212Z,4.19
2022-11-22T00:07:15.733Z,4.13
2022-11-22T00:07:47.246Z,4.16
2022-11-22T00:08:18.728Z,4.17
2022-11-22T00:08:50.357Z,4.21
2022-11-22T00:09:21.802Z,4.26
2022-11-22T00:09:53.321Z,4.23
2022-11-22T00:10:24.859Z,4.29
2022-11-22T00:10:56.322Z,4.21
2022-11-22T00:11:27.760Z,4.19
2022-11-22T00:11:59.189Z,4.26
2022-11-22T00:12:30.657Z,4.28
2022-11-22T00:13:02.424Z,4.26
2022-11-22T00:13:33.889Z,4.22
2022-11-22T00:14:05.400Z,4.21
2022-11-22T00:14:36.935Z,4.21
2022-11-22T00:15:09.212Z,4.21
2022-11-22T00:15:40.698Z,4.18
2022-11-22T00:16:12.631Z,4.17
2022-11-22T00:16:44.092Z,4.14
2022-11-22T00:17:15.549Z,4.17
2022-11-22T00:17:47.045Z,4.18
2022-11-22T00:18:18.496Z,4.13
2022-11-22T00:18:49.965Z,4.10
2022-11-22T00:19:21.690Z,4.22
2022-11-22T00:19:53.144Z,4.17
2022-11-22T00:20:24.761Z,4.11
2022-11-22T00:20:56.632Z,4.12
2022-11-22T00:21:28.418Z,4.20
2022-11-22T00:21:59.857Z,4.14
2022-11-22T00:22:32.300Z,4.20
2022-11-22T00:23:04.043Z,4.24
2022-11-22T00:23:35.492Z,4.18
2022-11-22T00:24:07.121Z,4.31
2022-11-22T00:24:38.601Z,4.24
2022-11-22T00:25:10.451Z,4.24
2022-11-22T00:25:42.775Z,4.22
2022-11-22T00:26:14.323Z,4.18
2022-11-22T00:26:45.893Z,4.17
2022-11-22T00:27:17.514Z,4.30
2022-11-22T00:27:48.968Z,4.27
2022-11-22T00:28:20.744Z,4.21
2022-11-22T00:28:52.211Z,4.21
2022-11-22T00:29:23.782Z,4.15
2022-11-22T00:29:55.336Z,4.12
2022-11-22T00:30:26.839Z,4.23
2022-11-22T00:30:58.319Z,4.21
2022-11-22T00:31:29.811Z,4.23
2022-11-22T00:32:01.361Z,4.23
2022-11-22T00:32:32.851Z,4.24
2022-11-22T00:33:04.297Z,4.26
2022-11-22T00:33:38.331Z,4.32
2022-11-22T00:34:09.777Z,4.36
2022-11-22T00:34:41.284Z,4.31
2022-11-22T00:35:12.808Z,4.31
2022-11-22T00:35:46.254Z,4.27
2022-11-22T00:36:17.748Z,4.30
2022-11-22T00:36:49.201Z,4.26
2022-11-22T00:37:20.663Z,4.30
2022-11-22T00:37:52.144Z,4.29
2022-11-22T00:38:23.677Z,4.24
2022-11-22T00:38:55.150Z,4.30
2022-11-22T00:39:26.902Z,4.28
2022-11-22T00:39:58.667Z,4.27
2022-11-22T00:40:31.250Z,4.23
2022-11-22T00:41:03.016Z,4.30
2022-11-22T00:41:34.481Z,4.30
2022-11-22T00:42:06.066Z,4.27
2022-11-22T00:42:37.508Z,4.29
2022-11-22T00:43:08.946Z,4.38
2022-11-22T00:43:40.405Z,4.30
2022-11-22T00:44:11.925Z,4.29
2022-11-22T00:44:43.421Z,4.23
2022-11-22T00:45:14.968Z,4.26
2022-11-22T00:45:46.401Z,4.24
2022-11-22T00:46:17.901Z,4.29
2022-11-22T00:46:49.447Z,4.31
2022-11-22T00:47:20.984Z,4.35
2022-11-22T00:47:52.450Z,4.32
2022-11-22T00:48:23.910Z,4.35
2022-11-22T00:48:55.473Z,4.35
2022-11-22T00:49:27.300Z,4.26
2022-11-22T00:49:59.145Z,4.31
2022-11-22T00:50:30.598Z,4.27
2022-11-22T00:51:02.109Z,4.33
2022-11-22T00:51:33.678Z,4.29
2022-11-22T00:52:05.230Z,4.27
2022-11-22T00:52:36.751Z,4.31
2022-11-22T00:53:08.214Z,4.34
2022-11-22T00:53:39.669Z,4.36
2022-11-22T00:54:11.124Z,4.32
2022-11-22T00:54:42.775Z,4.37
2022-11-22T00:55:14.385Z,4.36
2022-11-22T00:55:46.037Z,4.33
2022-11-22T00:56:17.538Z,4.40
2022-11-22T00:56:48.998Z,4.37
2022-11-22T00:57:20.510Z,4.32
2022-11-22T00:57:51.947Z,4.36
2022-11-22T00:58:23.489Z,4.33
2022-11-22T00:58:55.233Z,4.30
2022-11-22T00:59:26.842Z,4.29
2022-11-22T00:59:58.653Z,4.30
2022-11-22T01:00:30.117Z,4.35
2022-11-22T01:01:01.630Z,4.33
2022-11-22T01:01:33.197Z,4.33
2022-11-22T01:02:04.701Z,4.33
2022-11-22T01:02:36.170Z,4.33
2022-11-22T01:03:11.901Z,4.30
2022-11-22T01:03:43.465Z,4.28
2022-11-22T01:04:14.943Z,4.27
2022-11-22T01:04:47.154Z,4.30
2022-11-22T01:05:18.762Z,4.29
2022-11-22T01:05:50.238Z,4.36
2022-11-22T01:06:21.851Z,4.26
2022-11-22T01:06:53.295Z,4.39
2022-11-22T01:07:24.782Z,4.31
2022-11-22T01:07:56.353Z,4.36
2022-11-22T01:08:27.833Z,4.39
2022-11-22T01:08:59.282Z,4.37
2022-11-22T01:09:30.897Z,4.33
2022-11-22T01:10:02.509Z,4.35
2022-11-22T01:10:37.105Z,4.27
2022-11-22T01:11:08.821Z,4.37
2022-11-22T01:11:40.273Z,4.41
2022-11-22T01:12:11.757Z,4.38
2022-11-22T01:12:43.201Z,4.31
2022-11-22T01:13:14.647Z,4.39
2022-11-22T01:13:46.245Z,4.32
2022-11-22T01:14:18.654Z,4.30
2022-11-22T01:14:50.361Z,4.29
2022-11-22T01:15:22.025Z,4.25
2022-11-22T01:15:54.713Z,4.31
2022-11-22T01:16:26.233Z,4.32
2022-11-22T01:16:57.761Z,4.30
2022-11-22T01:17:29.214Z,4.30
2022-11-22T01:18:00.682Z,4.37
2022-11-22T01:18:33.408Z,4.41
2022-11-22T01:19:04.986Z,4.37
2022-11-22T01:19:36.430Z,4.41
2022-11-22T01:20:09.074Z,4.45
2022-11-22T01:20:41.129Z,4.45
2022-11-22T01:21:12.663Z,4.39
2022-11-22T01:21:44.229Z,4.39
2022-11-22T01:22:16.297Z,4.39
2022-11-22T01:22:47.725Z,4.45
2022-11-22T01:23:19.300Z,4.53
2022-11-22T01:23:51.415Z,4.43
2022-11-22T01:24:22.956Z,4.45
2022-11-22T01:24:54.413Z,4.50
2022-11-22T01:25:25.955Z,4.43
2022-11-22T01:25:57.586Z,4.50
2022-11-22T01:26:29.075Z,4.42
2022-11-22T01:27:00.545Z,4.38
2022-11-22T01:27:32.062Z,4.50
2022-11-22T01:28:04.328Z,4.54
2022-11-22T01:28:36.341Z,4.56
2022-11-22T01:29:07.844Z,4.56
2022-11-22T01:29:39.337Z,4.47
2022-11-22T01:30:11.330Z,4.51
2022-11-22T01:30:42.921Z,4.43
2022-11-22T01:31:14.456Z,4.40
2022-11-22T01:31:45.911Z,4.40
2022-11-22T01:32:17.353Z,4.35
2022-11-22T01:32:48.793Z,4.40
2022-11-22T01:33:20.790Z,4.44
2022-11-22T01:33:52.245Z,4.49
2022-11-22T01:34:23.813Z,4.37
2022-11-22T01:34:56.129Z,4.51
2022-11-22T01:35:27.680Z,4.46
2022-11-22T01:35:59.218Z,4.50
2022-11-22T01:36:30.684Z,4.45
2022-11-22T01:37:02.518Z,4.49
2022-11-22T01:37:33.988Z,4.49
2022-11-22T01:38:05.458Z,4.39
2022-11-22T01:38:36.912Z,4.44
2022-11-22T01:39:08.365Z,4.41
2022-11-22T01:39:39.824Z,4.44
2022-11-22T01:40:11.703Z,4.42
2022-11-22T01:40:43.297Z,4.46
2022-11-22T01:41:14.904Z,4.56
2022-11-22T01:41:46.406Z,4.51
2022-11-22T01:42:17.985Z,4.44
2022-11-22T01:42:55.177Z,4.53
2022-11-22T01:43:27.932Z,4.45
2022-11-22T01:44:21.264Z,4.50
2022-11-22T01:44:53.663Z,4.45
2022-11-22T01:45:30.902Z,4.47
2022-11-22T01:46:08.747Z,4.43
2022-11-22T01:46:40.241Z,4.45
2022-11-22T01:47:20.736Z,4.48
2022-11-22T01:47:52.759Z,4.49
2022-11-22T01:48:47.427Z,4.43
2022-11-22T01:49:41.898Z,4.45
2022-11-22T01:50:16.902Z,4.35
2022-11-22T01:50:51.680Z,4.46
2022-11-22T01:51:30.305Z,4.46
2022-11-22T01:52:13.797Z,4.37
2022-11-22T01:52:45.472Z,4.44
2022-11-22T01:53:20.956Z,4.45
2022-11-22T01:53:54.252Z,4.51
2022-11-22T01:54:27.695Z,4.41
2022-11-22T01:55:04.489Z,4.51
2022-11-22T01:55:36.520Z,4.59
2022-11-22T01:56:12.390Z,4.55
2022-11-22T01:56:47.249Z,4.51
2022-11-22T01:57:21.452Z,4.54
2022-11-22T01:57:52.954Z,4.52
2022-11-22T01:58:24.942Z,4.42
2022-11-22T01:59:03.456Z,4.40
2022-11-22T01:59:36.199Z,4.32
2022-11-22T02:00:14.402Z,4.33
2022-11-22T02:00:51.409Z,4.39
2022-11-22T02:01:23.018Z,4.45
2022-11-22T02:01:54.610Z,4.39
2022-11-22T02:02:26.170Z,4.43
2022-11-22T02:03:00.616Z,4.39
2022-11-22T02:03:33.450Z,4.42
2022-11-22T02:04:06.430Z,4.43
2022-11-22T02:04:38.144Z,4.40
2022-11-22T02:05:13.585Z,4.30
2022-11-22T02:05:45.237Z,4.28
2022-11-22T02:06:17.148Z,4.39
2022-11-22T02:06:59.734Z,4.36
2022-11-22T02:07:54.904Z,4.25
2022-11-22T02:08:40.827Z,4.25
2022-11-22T02:09:13.051Z,4.27
2022-11-22T02:09:45.243Z,4.23
2022-11-22T02:10:17.556Z,4.24
2022-11-22T02:10:50.893Z,4.38
2022-11-22T02:11:22.585Z,4.42
2022-11-22T02:11:56.137Z,4.38
2022-11-22T02:12:29.243Z,4.40
2022-11-22T02:13:00.856Z,4.39
2022-11-22T02:13:34.865Z,4.36
2022-11-22T02:14:08.198Z,4.37
2022-11-22T02:14:40.361Z,4.43
2022-11-22T02:15:12.326Z,4.42
2022-11-22T02:15:43.859Z,4.51
2022-11-22T02:16:15.360Z,4.42
2022-11-22T02:16:48.254Z,4.44
2022-11-22T02:17:19.723Z,4.45
2022-11-22T02:17:51.207Z,4.46
2022-11-22T02:18:22.671Z,4.46
2022-11-22T02:18:54.145Z,4.44
2022-11-22T02:19:39.602Z,4.53
2022-11-22T02:20:11.672Z,4.59
2022-11-22T02:20:43.464Z,4.49
2022-11-22T02:21:14.993Z,4.53
2022-11-22T02:21:49.728Z,4.52
2022-11-22T02:22:27.036Z,4.46
2022-11-22T02:23:06.817Z,4.46
2022-11-22T02:24:16.561Z,4.65
2022-11-22T02:24:55.893Z,4.71
2022-11-22T02:25:35.194Z,4.68
2022-11-22T02:26:06.801Z,4.59
2022-11-22T02:26:38.296Z,4.65
2022-11-22T02:27:09.745Z,4.62
2022-11-22T02:27:41.780Z,4.74
2022-11-22T02:28:13.843Z,4.65
2022-11-22T02:28:45.325Z,4.70
2022-11-22T02:29:18.015Z,4.69
2022-11-22T02:29:49.472Z,4.74
2022-11-22T02:30:21.264Z,4.72
2022-11-22T02:30:52.794Z,4.69
2022-11-22T02:31:38.625Z,4.70
2022-11-22T02:32:10.065Z,4.60
2022-11-22T02:32:41.923Z,4.57
2022-11-22T02:33:13.448Z,4.61
2022-11-22T02:33:44.907Z,4.59
2022-11-22T02:34:16.396Z,4.63
2022-11-22T02:34:50.416Z,4.64
2022-11-22T02:35:25.113Z,4.62
2022-11-22T02:35:56.799Z,4.59
2022-11-22T02:36:28.678Z,4.63
2022-11-22T02:37:00.146Z,4.71
2022-11-22T02:37:32.894Z,4.67
2022-11-22T02:38:07.481Z,4.58
2022-11-22T02:38:38.974Z,4.63
2022-11-22T02:39:12.860Z,4.60
2022-11-22T02:39:46.489Z,4.59
2022-11-22T02:40:18.355Z,4.57
2022-11-22T02:40:55.641Z,4.62
2022-11-22T02:41:27.617Z,4.56
2022-11-22T02:41:59.082Z,4.57
2022-11-22T02:42:30.959Z,4.55
2022-11-22T02:43:05.940Z,4.65
2022-11-22T02:43:44.598Z,4.58
2022-11-22T02:44:16.678Z,4.64
2022-11-22T02:44:48.131Z,4.60
2022-11-22T02:45:19.614Z,4.56
2022-11-22T02:45:51.064Z,4.57
2022-11-22T02:46:23.645Z,4.54
2022-11-22T02:46:55.689Z,4.54
2022-11-22T02:47:27.141Z,4.45
2022-11-22T02:48:06.597Z,4.45
2022-11-22T02:48:44.461Z,4.41
2022-11-22T02:49:18.157Z,4.37
2022-11-22T02:49:49.617Z,4.32
2022-11-22T02:50:21.083Z,4.36
2022-11-22T02:50:53.225Z,4.37
2022-11-22T02:51:26.292Z,4.39
2022-11-22T02:51:57.761Z,4.43
2022-11-22T02:52:29.287Z,4.50
2022-11-22T02:53:00.805Z,4.49
2022-11-22T02:53:32.327Z,4.48
2022-11-22T02:54:04.185Z,4.71
2022-11-22T02:54:35.737Z,4.53
2022-11-22T02:55:07.575Z,4.49
2022-11-22T02:55:39.161Z,4.54
2022-11-22T02:56:10.609Z,4.53
2022-11-22T02:56:42.061Z,4.60
2022-11-22T02:57:13.589Z,4.55
2022-11-22T02:57:45.049Z,4.56
2022-11-22T02:58:16.574Z,4.71
2022-11-22T02:58:48.117Z,4.66
2022-11-22T02:59:19.569Z,4.68
2022-11-22T02:59:51.086Z,4.61
2022-11-22T03:00:23.161Z,4.59
2022-11-22T03:00:54.653Z,4.58
2022-11-22T03:01:26.181Z,4.52
2022-11-22T03:02:03.049Z,4.52
2022-11-22T03:02:34.921Z,4.53
2022-11-22T03:03:06.621Z,4.46
2022-11-22T03:03:38.416Z,4.52
2022-11-22T03:04:10.043Z,4.45
2022-11-22T03:04:41.548Z,4.40
2022-11-22T03:05:13.429Z,4.36
2022-11-22T03:05:44.897Z,4.43
2022-11-22T03:06:16.398Z,4.36
2022-11-22T03:06:47.884Z,4.29
2022-11-22T03:07:19.359Z,4.28
2022-11-22T03:07:51.313Z,4.33
2022-11-22T03:08:22.815Z,4.31
2022-11-22T03:08:56.531Z,4.23
2022-11-22T03:09:29.034Z,4.20
2022-11-22T03:10:00.886Z,4.16
2022-11-22T03:10:32.408Z,4.18
2022-11-22T03:11:03.852Z,4.15
2022-11-22T03:11:35.309Z,4.10
2022-11-22T03:12:06.859Z,4.03
2022-11-22T03:12:38.304Z,4.17
2022-11-22T03:13:09.779Z,4.03
2022-11-22T03:13:41.552Z,3.99
2022-11-22T03:14:15.365Z,4.02
2022-11-22T03:14:46.810Z,4.11
2022-11-22T03:15:18.254Z,4.01
2022-11-22T03:15:49.677Z,3.97
2022-11-22T03:16:21.159Z,3.96
2022-11-22T03:16:52.659Z,3.93
2022-11-22T03:17:24.257Z,3.77
2022-11-22T03:18:02.985Z,4.01
2022-11-22T03:18:37.791Z,3.94
2022-11-22T03:19:09.760Z,3.96
2022-11-22T03:19:41.221Z,4.01
2022-11-22T03:20:12.971Z,3.96
2022-11-22T03:20:44.472Z,3.97
2022-11-22T03:21:16.035Z,3.98
2022-11-22T03:21:47.733Z,3.94
2022-11-22T03:22:19.221Z,3.95
2022-11-22T03:22:50.822Z,3.96
2022-11-22T03:23:22.312Z,3.95
2022-11-22T03:23:54.769Z,3.93
2022-11-22T03:24:26.257Z,4.06
2022-11-22T03:24:57.742Z,4.09
2022-11-22T03:25:29.308Z,4.12
2022-11-22T03:26:07.201Z,4.22
2022-11-22T03:26:39.445Z,4.18
2022-11-22T03:27:10.976Z,4.17
2022-11-22T03:27:42.412Z,4.21
2022-11-22T03:28:13.911Z,4.24
2022-11-22T03:28:45.481Z,4.18
2022-11-22T03:29:17.878Z,4.16
2022-11-22T03:29:49.413Z,4.16
2022-11-22T03:30:20.891Z,4.17
2022-11-22T03:30:52.481Z,4.13
2022-11-22T03:31:23.946Z,4.20
2022-11-22T03:31:55.555Z,4.10
2022-11-22T03:32:27.038Z,4.10
2022-11-22T03:32:58.781Z,4.09
2022-11-22T03:33:30.220Z,4.09
2022-11-22T03:34:01.716Z,4.10
2022-11-22T03:34:33.190Z,4.06
2022-11-22T03:35:05.073Z,4.08
2022-11-22T03:35:36.568Z,4.13
2022-11-22T03:36:08.115Z,4.04
2022-11-22T03:36:39.564Z,4.07
2022-11-22T03:37:11.052Z,4.07
2022-11-22T03:37:42.780Z,4.06
2022-11-22T03:38:14.228Z,4.15
2022-11-22T03:38:45.805Z,4.12
2022-11-22T03:39:17.280Z,4.12
2022-11-22T03:39:48.768Z,4.09
2022-11-22T03:40:21.130Z,4.09
2022-11-22T03:40:52.615Z,4.08
2022-11-22T03:41:24.112Z,4.09
2022-11-22T03:41:56.366Z,4.25
2022-11-22T03:42:27.841Z,4.22
2022-11-22T03:43:01.129Z,4.17
2022-11-22T03:43:32.645Z,4.19
2022-11-22T03:44:04.388Z,4.30
2022-11-22T03:44:35.828Z,4.24
2022-11-22T03:45:07.660Z,4.27
2022-11-22T03:45:44.947Z,4.29
2022-11-22T03:46:19.452Z,4.29
2022-11-22T03:46:51.112Z,4.33
2022-11-22T03:47:22.637Z,4.29
2022-11-22T03:47:55.878Z,4.42
2022-11-22T03:48:27.518Z,4.46
2022-11-22T03:48:59.001Z,4.41
2022-11-22T03:49:30.658Z,4.43
2022-11-22T03:50:02.341Z,4.56
2022-11-22T03:50:33.812Z,4.63
2022-11-22T03:51:06.394Z,4.52
2022-11-22T03:51:37.886Z,4.46
2022-11-22T03:52:09.649Z,4.46
2022-11-22T03:52:41.088Z,4.54
2022-11-22T03:53:12.686Z,4.51
2022-11-22T03:53:44.177Z,4.47
2022-11-22T03:54:15.745Z,4.51
2022-11-22T03:54:47.320Z,4.51
2022-11-22T03:55:18.974Z,4.49
2022-11-22T03:55:50.500Z,4.50
2022-11-22T03:56:22.948Z,4.49
2022-11-22T03:56:54.407Z,4.49
2022-11-22T03:57:25.853Z,4.49
2022-11-22T03:57:57.320Z,4.49
2022-11-22T03:58:28.856Z,4.51
2022-11-22T03:59:00.328Z,4.60
2022-11-22T03:59:32.745Z,4.59
2022-11-22T04:00:05.850Z,4.80
2022-11-22T04:00:43.457Z,4.77
2022-11-22T04:01:16.780Z,4.78
2022-11-22T04:01:48.578Z,4.87
2022-11-22T04:02:20.139Z,4.83
2022-11-22T04:02:51.684Z,4.82
2022-11-22T04:03:23.329Z,4.86
2022-11-22T04:03:54.894Z,4.87
2022-11-22T04:04:26.365Z,4.89
2022-11-22T04:04:57.834Z,4.82
2022-11-22T04:05:29.294Z,4.79
2022-11-22T04:06:00.792Z,4.80
2022-11-22T04:06:32.307Z,4.79
2022-11-22T04:07:03.829Z,4.77
2022-11-22T04:07:35.509Z,4.81
2022-11-22T04:08:07.104Z,4.82
2022-11-22T04:08:38.610Z,4.81
2022-11-22T04:09:10.154Z,5.03
2022-11-22T04:09:41.640Z,4.89
2022-11-22T04:10:15.385Z,4.82
2022-11-22T04:10:50.986Z,4.80
2022-11-22T04:11:22.465Z,4.78
2022-11-22T04:11:53.962Z,4.79
2022-11-22T04:12:25.446Z,4.81
2022-11-22T04:12:58.934Z,4.75
2022-11-22T04:13:49.168Z,4.75
2022-11-22T04:14:39.042Z,4.76
2022-11-22T04:15:10.683Z,4.79
2022-11-22T04:15:42.141Z,4.79
2022-11-22T04:16:13.651Z,4.77
2022-11-22T04:16:45.112Z,4.82
2022-11-22T04:17:36.537Z,4.86
2022-11-22T04:18:11.144Z,4.82
2022-11-22T04:18:42.695Z,4.84
2022-11-22T04:19:14.196Z,4.79
2022-11-22T04:20:05.621Z,4.76
2022-11-22T04:20:55.627Z,4.86
2022-11-22T04:21:36.068Z,4.85
2022-11-22T04:22:07.511Z,4.87
2022-11-22T04:22:38.945Z,4.80
2022-11-22T04:23:16.237Z,4.75
2022-11-22T04:24:07.655Z,4.75
2022-11-22T04:24:58.104Z,4.72
2022-11-22T04:25:31.241Z,4.78
2022-11-22T04:26:02.778Z,4.73
2022-11-22T04:26:34.291Z,4.76
2022-11-22T04:27:05.740Z,4.74
2022-11-22T04:27:37.221Z,4.84
2022-11-22T04:28:09.759Z,4.80
2022-11-22T04:29:08.186Z,4.83
2022-11-22T04:29:32.873Z,4.79
2022-11-22T04:30:05.105Z,4.81
2022-11-22T04:30:55.470Z,4.77
2022-11-22T04:31:45.578Z,4.75
2022-11-22T04:32:35.574Z,4.91
2022-11-22T04:33:07.519Z,4.81
2022-11-22T04:33:38.984Z,4.79
2022-11-22T04:34:10.454Z,4.90
2022-11-22T04:34:41.956Z,4.81
2022-11-22T04:35:15.482Z,4.80
2022-11-22T04:35:47.342Z,4.87
2022-11-22T04:36:18.889Z,4.90
2022-11-22T04:36:50.440Z,4.82
2022-11-22T04:37:22.080Z,4.90
2022-11-22T04:37:53.533Z,4.87
2022-11-22T04:38:25.169Z,4.84
2022-11-22T04:38:56.653Z,4.85
2022-11-22T04:39:28.444Z,4.83
2022-11-22T04:40:00.094Z,4.84
2022-11-22T04:40:32.488Z,4.83
2022-11-22T04:41:03.994Z,4.86
2022-11-22T04:41:35.437Z,4.80
2022-11-22T04:42:25.473Z,4.79
2022-11-22T04:43:15.458Z,4.78
2022-11-22T04:44:05.452Z,4.81
2022-11-22T04:44:42.682Z,4.86
2022-11-22T04:45:14.172Z,4.85
2022-11-22T04:45:45.779Z,4.83
2022-11-22T04:46:17.477Z,4.84
2022-11-22T04:46:48.903Z,4.88
2022-11-22T04:47:39.040Z,4.80
2022-11-22T04:48:12.370Z,4.88
2022-11-22T04:48:43.895Z,4.76
2022-11-22T04:49:15.404Z,4.75
2022-11-22T04:49:46.818Z,4.72
2022-11-22T04:50:36.940Z,4.71
2022-11-22T04:51:30.068Z,4.72
2022-11-22T04:52:20.649Z,4.74
2022-11-22T04:52:57.414Z,4.59
2022-11-22T04:53:29.520Z,4.61
2022-11-22T04:54:01.111Z,4.61
2022-11-22T04:54:32.578Z,4.62
2022-11-22T04:55:04.570Z,4.55
2022-11-22T04:55:36.049Z,4.52
2022-11-22T04:56:07.984Z,4.49
2022-11-22T04:56:39.714Z,4.42
2022-11-22T04:57:11.195Z,4.43
2022-11-22T04:57:42.678Z,4.40
2022-11-22T04:58:14.182Z,4.32
2022-11-22T04:58:45.667Z,4.32
2022-11-22T04:59:17.169Z,4.30
2022-11-22T04:59:48.749Z,4.27
2022-11-22T05:00:20.237Z,4.20
2022-11-22T05:00:53.030Z,4.20
2022-11-22T05:01:24.672Z,4.23
2022-11-22T05:01:56.169Z,4.18
2022-11-22T05:02:27.601Z,4.18
2022-11-22T05:02:59.213Z,4.15
2022-11-22T05:03:30.666Z,4.12
2022-11-22T05:04:02.122Z,4.17
2022-11-22T05:04:33.773Z,4.12
2022-11-22T05:05:05.682Z,3.99
2022-11-22T05:05:39.068Z,3.99
2022-11-22T05:06:13.106Z,3.95
2022-11-22T05:06:44.556Z,3.92
2022-11-22T05:07:16.317Z,3.96
2022-11-22T05:07:47.928Z,4.00
2022-11-22T05:08:20.028Z,3.94
2022-11-22T05:08:51.501Z,4.04
2022-11-22T05:09:23.817Z,4.00
2022-11-22T05:09:55.328Z,3.98
2022-11-22T05:10:27.409Z,3.96
2022-11-22T05:10:59.643Z,3.98
2022-11-22T05:11:31.344Z,3.93
2022-11-22T05:12:02.835Z,3.93
2022-11-22T05:12:34.465Z,4.01
2022-11-22T05:13:05.945Z,3.98
2022-11-22T05:13:41.211Z,3.93
2022-11-22T05:14:12.727Z,3.89
2022-11-22T05:14:44.435Z,3.91
2022-11-22T05:15:16.139Z,3.93
2022-11-22T05:15:48.276Z,3.95
2022-11-22T05:16:19.776Z,3.88
2022-11-22T05:16:51.284Z,3.95
2022-11-22T05:17:22.745Z,3.92
2022-11-22T05:17:54.198Z,3.91
2022-11-22T05:18:26.549Z,3.96
2022-11-22T05:19:00.907Z,3.88
2022-11-22T05:19:32.512Z,3.86
2022-11-22T05:20:05.605Z,3.88
2022-11-22T05:20:37.048Z,3.75
2022-11-22T05:21:11.186Z,3.74
2022-11-22T05:21:42.707Z,3.68
2022-11-22T05:22:14.150Z,3.69
2022-11-22T05:23:04.553Z,3.66
2022-11-22T05:23:54.228Z,3.62
2022-11-22T05:24:25.714Z,3.62
2022-11-22T05:24:57.165Z,3.69
2022-11-22T05:25:28.894Z,3.63
2022-11-22T05:26:00.789Z,3.57
2022-11-22T05:26:36.350Z,3.57
2022-11-22T05:27:07.845Z,3.56
2022-11-22T05:27:39.297Z,3.50
2022-11-22T05:28:10.747Z,3.47
2022-11-22T05:28:42.226Z,3.44
2022-11-22T05:29:13.673Z,3.40
2022-11-22T05:29:45.269Z,3.31
2022-11-22T05:30:16.886Z,3.34
2022-11-22T05:30:48.329Z,3.28
2022-11-22T05:31:24.723Z,3.33
2022-11-22T05:31:56.195Z,3.29
2022-11-22T05:32:30.611Z,3.25
2022-11-22T05:33:02.053Z,3.21
2022-11-22T05:33:35.535Z,3.26
2022-11-22T05:34:06.985Z,3.30
2022-11-22T05:34:38.490Z,3.29
2022-11-22T05:35:09.948Z,3.25
2022-11-22T05:35:41.389Z,3.17
2022-11-22T05:36:13.026Z,3.34
2022-11-22T05:36:44.554Z,3.29
2022-11-22T05:37:16.035Z,3.27
2022-11-22T05:38:06.073Z,3.25
2022-11-22T05:38:38.248Z,3.26
2022-11-22T05:39:09.721Z,3.25
2022-11-22T05:39:41.221Z,3.21
2022-11-22T05:40:13.139Z,3.23
2022-11-22T05:40:44.630Z,3.19
2022-11-22T05:41:16.838Z,3.19
2022-11-22T05:41:55.962Z,3.28
2022-11-22T05:42:27.666Z,3.20
2022-11-22T05:42:59.397Z,3.13
2022-11-22T05:43:31.510Z,3.10
2022-11-22T05:44:03.134Z,3.14
2022-11-22T05:44:34.750Z,3.15
2022-11-22T05:45:06.749Z,3.22
2022-11-22T05:45:38.314Z,3.19
2022-11-22T05:46:23.546Z,3.13
2022-11-22T05:46:56.024Z,3.09
2022-11-22T05:47:27.824Z,3.08
2022-11-22T05:47:59.267Z,2.98
2022-11-22T05:48:30.734Z,3.20
2022-11-22T05:49:02.252Z,3.14
2022-11-22T05:49:33.724Z,3.22
2022-11-22T05:50:05.707Z,3.25
2022-11-22T05:50:37.179Z,3.17
2022-11-22T05:51:10.965Z,3.16
2022-11-22T05:51:42.413Z,3.17
2022-11-22T05:52:14.133Z,3.14
2022-11-22T05:52:45.989Z,3.09
2022-11-22T05:53:17.484Z,3.11
2022-11-22T05:53:49.149Z,3.13
2022-11-22T05:54:20.584Z,3.26
2022-11-22T05:54:52.042Z,3.20
2022-11-22T05:55:23.835Z,3.28
2022-11-22T05:55:55.281Z,3.19
2022-11-22T05:56:27.156Z,3.16
2022-11-22T05:56:58.597Z,3.17
2022-11-22T05:57:32.413Z,3.22
2022-11-22T05:58:03.959Z,3.21
2022-11-22T05:58:35.809Z,3.21
2022-11-22T05:59:07.273Z,3.15
2022-11-22T05:59:43.885Z,3.32
2022-11-22T06:00:16.518Z,3.23
2022-11-22T06:00:47.997Z,3.19
2022-11-22T06:01:21.686Z,3.15
2022-11-22T06:01:53.227Z,3.13
2022-11-22T06:02:25.565Z,3.13
2022-11-22T06:03:01.790Z,3.07
2022-11-22T06:03:33.862Z,3.14
2022-11-22T06:04:05.502Z,3.19
2022-11-22T06:04:37.137Z,3.14
2022-11-22T06:05:08.978Z,3.07
2022-11-22T06:05:40.437Z,3.05
2022-11-22T06:06:12.455Z,3.07
2022-11-22T06:06:46.904Z,3.12
2022-11-22T06:07:18.443Z,3.01
2022-11-22T06:07:49.979Z,3.12
2022-11-22T06:08:21.462Z,3.13
2022-11-22T06:08:53.112Z,3.09
2022-11-22T06:09:24.689Z,3.07
2022-11-22T06:09:56.128Z,3.09
2022-11-22T06:10:27.612Z,2.99
2022-11-22T06:11:09.921Z,2.98
2022-11-22T06:11:41.357Z,3.12
2022-11-22T06:12:13.001Z,3.08
2022-11-22T06:12:44.471Z,3.01
2022-11-22T06:13:15.950Z,2.99
2022-11-22T06:13:49.663Z,3.01
2022-11-22T06:14:21.230Z,2.95
2022-11-22T06:14:52.741Z,2.97
2022-11-22T06:15:24.273Z,2.92
2022-11-22T06:15:59.945Z,3.01
2022-11-22T06:16:31.672Z,3.05
2022-11-22T06:17:03.487Z,3.04
2022-11-22T06:17:34.969Z,3.06
2022-11-22T06:18:06.518Z,3.02
2022-11-22T06:18:38.012Z,2.98
2022-11-22T06:19:09.616Z,2.96
2022-11-22T06:19:41.852Z,2.91
2022-11-22T06:20:13.309Z,2.96
2022-11-22T06:20:44.817Z,2.89
2022-11-22T06:21:19.642Z,2.99
2022-11-22T06:21:51.221Z,2.94
2022-11-22T06:22:22.839Z,3.00
2022-11-22T06:22:54.298Z,3.09
2022-11-22T06:23:25.851Z,3.07
2022-11-22T06:23:57.379Z,3.00
2022-11-22T06:24:28.859Z,2.98
2022-11-22T06:25:00.408Z,3.16
2022-11-22T06:25:33.315Z,3.07
2022-11-22T06:26:07.514Z,3.05
2022-11-22T06:26:39.584Z,3.01
2022-11-22T06:27:11.134Z,3.05
2022-11-22T06:27:42.634Z,3.04
2022-11-22T06:28:14.102Z,2.99
2022-11-22T06:28:46.821Z,2.98
2022-11-22T06:29:18.289Z,3.04
2022-11-22T06:29:49.900Z,2.93
2022-11-22T06:30:21.370Z,2.93
2022-11-22T06:30:52.885Z,2.91
2022-11-22T06:31:26.484Z,3.15
2022-11-22T06:32:03.168Z,3.04
2022-11-22T06:32:35.470Z,3.03
2022-11-22T06:33:06.917Z,3.12
2022-11-22T06:33:41.002Z,3.01
2022-11-22T06:34:13.404Z,3.08
2022-11-22T06:34:44.923Z,2.97
2022-11-22T06:35:16.439Z,3.05
2022-11-22T06:35:47.897Z,3.00
2022-11-22T06:36:24.334Z,3.00
2022-11-22T06:36:55.848Z,2.94
2022-11-22T06:37:27.797Z,2.94
2022-11-22T06:38:00.830Z,2.92
2022-11-22T06:38:33.089Z,2.96
2022-11-22T06:39:05.125Z,3.04
2022-11-22T06:39:36.629Z,2.96
2022-11-22T06:40:11.654Z,2.91
2022-11-22T06:40:43.128Z,2.88
2022-11-22T06:41:16.688Z,2.95
2022-11-22T06:41:48.129Z,2.99
2022-11-22T06:42:19.577Z,3.02
2022-11-22T06:42:51.653Z,2.90
2022-11-22T06:43:23.098Z,2.99
2022-11-22T06:43:57.454Z,2.99
2022-11-22T06:44:28.911Z,2.89
2022-11-22T06:45:00.477Z,3.02
2022-11-22T06:45:31.969Z,2.95
2022-11-22T06:46:04.840Z,2.95
2022-11-22T06:46:36.866Z,2.86
2022-11-22T06:47:08.418Z,2.86
2022-11-22T06:47:39.979Z,2.82
2022-11-22T06:48:11.498Z,2.75
2022-11-22T06:48:43.417Z,2.74
2022-11-22T06:49:14.980Z,2.76
2022-11-22T06:49:46.432Z,2.88
2022-11-22T06:50:21.677Z,2.77
2022-11-22T06:51:01.541Z,2.84
2022-11-22T06:51:33.112Z,2.94
2022-11-22T06:52:05.231Z,3.00
2022-11-22T06:52:36.854Z,2.92
2022-11-22T06:53:21.295Z,2.95
2022-11-22T06:54:00.807Z,2.94
2022-11-22T06:54:32.294Z,3.00
2022-11-22T06:55:07.990Z,2.85
2022-11-22T06:56:01.072Z,2.85
2022-11-22T06:56:32.394Z,2.99
2022-11-22T06:57:03.898Z,2.95
2022-11-22T06:57:35.366Z,2.89
2022-11-22T06:58:06.832Z,2.94
2022-11-22T06:58:39.018Z,2.93
2022-11-22T06:59:10.792Z,2.88
2022-11-22T06:59:42.220Z,2.84
2022-11-22T07:00:14.040Z,2.75
2022-11-22T07:00:45.560Z,2.72
2022-11-22T07:01:19.296Z,2.69
2022-11-22T07:01:50.950Z,2.69
2022-11-22T07:02:23.700Z,2.93
2022-11-22T07:02:55.235Z,2.78
2022-11-22T07:03:26.848Z,2.79
2022-11-22T07:03:59.346Z,2.75
2022-11-22T07:04:30.805Z,2.79
2022-11-22T07:05:24.475Z,2.76
2022-11-22T07:05:54.033Z,2.88
2022-11-22T07:06:30.947Z,2.85
2022-11-22T07:07:02.520Z,2.78
2022-11-22T07:07:34.066Z,2.78
2022-11-22T07:08:11.981Z,2.85
2022-11-22T07:08:45.711Z,2.90
2022-11-22T07:09:17.144Z,2.96
2022-11-22T07:09:52.159Z,2.91
2022-11-22T07:10:27.744Z,2.83
2022-11-22T07:11:07.741Z,2.90
2022-11-22T07:11:39.967Z,2.81
2022-11-22T07:12:11.451Z,2.79
2022-11-22T07:12:43.011Z,2.86
2022-11-22T07:13:14.496Z,2.82
2022-11-22T07:13:46.830Z,2.80
2022-11-22T07:14:18.368Z,2.88
2022-11-22T07:14:49.848Z,3.01
2022-11-22T07:15:21.363Z,2.91
2022-11-22T07:15:56.470Z,2.95
2022-11-22T07:16:28.062Z,2.84
2022-11-22T07:16:59.548Z,2.84
2022-11-22T07:17:31.007Z,2.93
2022-11-22T07:18:02.634Z,2.77
2022-11-22T07:18:34.660Z,2.81
2022-11-22T07:19:06.783Z,2.81
2022-11-22T07:19:38.487Z,2.75